createdAt,value
2023-06-03T00:00:41.436Z,428.00
2023-06-03T00:01:41.461Z,429.00
2023-06-03T00:02:41.562Z,427.00
2023-06-03T00:03:41.510Z,426.00
2023-06-03T00:04:41.515Z,429.00
2023-06-03T00:05:41.553Z,430.00
2023-06-03T00:06:41.507Z,429.00
2023-06-03T00:07:41.525Z,429.00
2023-06-03T00:08:41.533Z,430.00
2023-06-03T00:09:41.575Z,427.00
2023-06-03T00:10:41.598Z,427.00
2023-06-03T00:11:41.590Z,429.00
2023-06-03T00:12:41.585Z,430.00
2023-06-03T00:13:41.607Z,431.00
2023-06-03T00:14:41.619Z,430.00
2023-06-03T00:15:41.623Z,430.00
2023-06-03T00:16:41.663Z,429.00
2023-06-03T00:17:41.686Z,430.00
2023-06-03T00:18:41.692Z,429.00
2023-06-03T00:19:41.663Z,429.00
2023-06-03T00:20:41.698Z,430.00
2023-06-03T00:21:41.738Z,428.00
2023-06-03T00:22:41.825Z,429.00
2023-06-03T00:23:41.786Z,430.00
2023-06-03T00:24:41.746Z,430.00
2023-06-03T00:25:41.783Z,429.00
2023-06-03T00:26:41.790Z,428.00
2023-06-03T00:27:41.805Z,429.00
2023-06-03T00:28:41.828Z,430.00
2023-06-03T00:29:41.838Z,430.00
2023-06-03T00:30:41.866Z,430.00
2023-06-03T00:31:41.927Z,430.00
2023-06-03T00:32:41.894Z,431.00
2023-06-03T00:33:42.001Z,430.00
2023-06-03T00:34:41.885Z,429.00
2023-06-03T00:35:41.888Z,429.00
2023-06-03T00:36:41.875Z,427.00
2023-06-03T00:37:41.910Z,430.00
2023-06-03T00:38:41.891Z,428.00
2023-06-03T00:39:41.890Z,430.00
2023-06-03T00:40:41.905Z,431.00
2023-06-03T00:41:41.928Z,435.00
2023-06-03T00:42:41.920Z,435.00
2023-06-03T00:43:41.960Z,433.00
2023-06-03T00:44:41.918Z,433.00
2023-06-03T00:45:42.033Z,434.00
2023-06-03T00:46:41.930Z,435.00
2023-06-03T00:47:41.981Z,435.00
2023-06-03T00:48:41.956Z,434.00
2023-06-03T00:49:41.965Z,435.00
2023-06-03T00:50:41.975Z,433.00
2023-06-03T00:51:42.018Z,434.00
2023-06-03T00:52:42.030Z,434.00
2023-06-03T00:53:42.051Z,432.00
2023-06-03T00:54:42.010Z,433.00
2023-06-03T00:55:42.071Z,435.00
2023-06-03T00:56:42.054Z,434.00
2023-06-03T00:57:42.110Z,433.00
2023-06-03T00:58:42.115Z,434.00
2023-06-03T00:59:42.095Z,435.00
2023-06-03T01:00:42.140Z,436.00
2023-06-03T01:01:42.148Z,438.00
2023-06-03T01:02:42.186Z,437.00
2023-06-03T01:03:42.175Z,437.00
2023-06-03T01:04:42.167Z,438.00
2023-06-03T01:05:42.177Z,436.00
2023-06-03T01:06:42.168Z,436.00
2023-06-03T01:07:42.208Z,434.00
2023-06-03T01:08:42.208Z,433.00
2023-06-03T01:09:42.239Z,435.00
2023-06-03T01:10:42.249Z,434.00
2023-06-03T01:11:42.274Z,436.00
2023-06-03T01:12:42.351Z,436.00
2023-06-03T01:13:42.315Z,436.00
2023-06-03T01:14:42.330Z,437.00
2023-06-03T01:15:42.420Z,437.00
2023-06-03T01:16:42.336Z,437.00
2023-06-03T01:17:42.383Z,439.00
2023-06-03T01:18:42.378Z,438.00
2023-06-03T01:19:42.356Z,438.00
2023-06-03T01:20:42.398Z,437.00
2023-06-03T01:21:42.383Z,438.00
2023-06-03T01:22:42.435Z,438.00
2023-06-03T01:23:42.462Z,440.00
2023-06-03T01:24:42.449Z,441.00
2023-06-03T01:25:42.461Z,442.00
2023-06-03T01:26:42.481Z,443.00
2023-06-03T01:27:42.507Z,443.00
2023-06-03T01:28:42.540Z,444.00
2023-06-03T01:29:42.533Z,441.00
2023-06-03T01:30:42.552Z,441.00
2023-06-03T01:31:42.696Z,441.00
2023-06-03T01:32:42.662Z,441.00
2023-06-03T01:33:42.575Z,441.00
2023-06-03T01:34:42.616Z,442.00
2023-06-03T01:35:42.615Z,441.00
2023-06-03T01:36:42.673Z,441.00
2023-06-03T01:37:42.689Z,439.00
2023-06-03T01:38:42.662Z,440.00
2023-06-03T01:39:42.691Z,441.00
2023-06-03T01:40:42.684Z,440.00
2023-06-03T01:41:42.647Z,440.00
2023-06-03T01:42:42.662Z,441.00
2023-06-03T01:43:42.652Z,441.00
2023-06-03T01:44:42.704Z,442.00
2023-06-03T01:45:42.706Z,441.00
2023-06-03T01:46:42.745Z,442.00
2023-06-03T01:47:42.743Z,441.00
2023-06-03T01:48:42.698Z,440.00
2023-06-03T01:49:42.693Z,440.00
2023-06-03T01:50:42.705Z,437.00
2023-06-03T01:51:42.752Z,437.00
2023-06-03T01:52:42.740Z,436.00
2023-06-03T01:53:42.740Z,438.00
2023-06-03T01:54:42.778Z,441.00
2023-06-03T01:55:42.761Z,441.00
2023-06-03T01:56:42.792Z,440.00
2023-06-03T01:57:42.814Z,438.00
2023-06-03T01:58:42.829Z,437.00
2023-06-03T01:59:42.794Z,435.00
2023-06-03T02:00:42.845Z,437.00
2023-06-03T02:01:42.846Z,434.00
2023-06-03T02:02:42.958Z,433.00
2023-06-03T02:03:42.876Z,433.00
2023-06-03T02:04:42.880Z,432.00
2023-06-03T02:05:42.901Z,432.00
2023-06-03T02:06:42.929Z,435.00
2023-06-03T02:07:42.948Z,435.00
2023-06-03T02:08:42.924Z,435.00
2023-06-03T02:09:42.974Z,437.00
2023-06-03T02:10:42.982Z,438.00
2023-06-03T02:11:43.008Z,438.00
2023-06-03T02:12:43.021Z,438.00
2023-06-03T02:13:43.008Z,439.00
2023-06-03T02:14:43.043Z,439.00
2023-06-03T02:15:43.068Z,440.00
2023-06-03T02:16:43.096Z,441.00
2023-06-03T02:17:43.097Z,437.00
2023-06-03T02:18:43.132Z,438.00
2023-06-03T02:19:43.099Z,438.00
2023-06-03T02:20:43.147Z,438.00
2023-06-03T02:21:43.164Z,437.00
2023-06-03T02:22:43.157Z,440.00
2023-06-03T02:23:43.274Z,436.00
2023-06-03T02:24:43.195Z,437.00
2023-06-03T02:25:43.181Z,438.00
2023-06-03T02:26:43.237Z,439.00
2023-06-03T02:27:43.283Z,440.00
2023-06-03T02:28:43.285Z,441.00
2023-06-03T02:29:43.291Z,440.00
2023-06-03T02:30:43.267Z,441.00
2023-06-03T02:31:43.315Z,442.00
2023-06-03T02:32:43.334Z,442.00
2023-06-03T02:33:43.340Z,440.00
2023-06-03T02:34:43.338Z,439.00
2023-06-03T02:35:43.367Z,439.00
2023-06-03T02:36:43.393Z,439.00
2023-06-03T02:37:43.395Z,437.00
2023-06-03T02:38:43.417Z,438.00
2023-06-03T02:39:43.430Z,437.00
2023-06-03T02:40:43.433Z,439.00
2023-06-03T02:41:44.754Z,438.00
2023-06-03T02:42:43.452Z,439.00
2023-06-03T02:43:43.466Z,439.00
2023-06-03T02:44:43.441Z,437.00
2023-06-03T02:45:43.526Z,436.00
2023-06-03T02:46:43.545Z,434.00
2023-06-03T02:47:43.572Z,434.00
2023-06-03T02:48:43.534Z,435.00
2023-06-03T02:49:43.536Z,435.00
2023-06-03T02:50:43.563Z,437.00
2023-06-03T02:51:43.585Z,436.00
2023-06-03T02:52:43.611Z,435.00
2023-06-03T02:53:43.596Z,435.00
2023-06-03T02:54:43.632Z,437.00
2023-06-03T02:55:43.638Z,436.00
2023-06-03T02:56:43.642Z,436.00
2023-06-03T02:57:43.653Z,435.00
2023-06-03T02:58:43.666Z,437.00
2023-06-03T02:59:43.697Z,439.00
2023-06-03T03:00:43.705Z,440.00
2023-06-03T03:01:43.766Z,441.00
2023-06-03T03:02:43.831Z,442.00
2023-06-03T03:03:43.781Z,440.00
2023-06-03T03:04:43.763Z,441.00
2023-06-03T03:05:43.768Z,441.00
2023-06-03T03:06:43.792Z,440.00
2023-06-03T03:07:43.827Z,439.00
2023-06-03T03:08:43.802Z,437.00
2023-06-03T03:09:43.809Z,438.00
2023-06-03T03:10:43.835Z,440.00
2023-06-03T03:11:43.851Z,439.00
2023-06-03T03:12:43.856Z,439.00
2023-06-03T03:13:43.876Z,438.00
2023-06-03T03:14:43.903Z,440.00
2023-06-03T03:15:43.877Z,437.00
2023-06-03T03:16:43.975Z,435.00
2023-06-03T03:17:44.012Z,434.00
2023-06-03T03:18:43.939Z,435.00
2023-06-03T03:19:43.966Z,436.00
2023-06-03T03:20:43.950Z,434.00
2023-06-03T03:21:43.985Z,433.00
2023-06-03T03:22:44.040Z,432.00
2023-06-03T03:23:44.062Z,433.00
2023-06-03T03:24:44.040Z,434.00
2023-06-03T03:25:44.069Z,434.00
2023-06-03T03:26:44.057Z,433.00
2023-06-03T03:27:44.060Z,431.00
2023-06-03T03:28:44.053Z,430.00
2023-06-03T03:29:44.064Z,428.00
2023-06-03T03:30:44.083Z,429.00
2023-06-03T03:31:44.138Z,429.00
2023-06-03T03:32:44.151Z,431.00
2023-06-03T03:33:44.166Z,431.00
2023-06-03T03:34:44.197Z,432.00
2023-06-03T03:35:44.211Z,436.00
2023-06-03T03:36:44.214Z,436.00
2023-06-03T03:37:44.215Z,437.00
2023-06-03T03:38:44.215Z,437.00
2023-06-03T03:39:44.263Z,437.00
2023-06-03T03:40:44.239Z,436.00
2023-06-03T03:41:44.273Z,438.00
2023-06-03T03:42:44.272Z,439.00
2023-06-03T03:43:44.300Z,436.00
2023-06-03T03:44:44.299Z,436.00
2023-06-03T03:45:44.341Z,437.00
2023-06-03T03:46:44.334Z,438.00
2023-06-03T03:47:44.301Z,438.00
2023-06-03T03:48:44.330Z,440.00
2023-06-03T03:49:44.343Z,440.00
2023-06-03T03:50:44.366Z,438.00
2023-06-03T03:51:44.399Z,438.00
2023-06-03T03:52:44.370Z,437.00
2023-06-03T03:53:44.410Z,437.00
2023-06-03T03:54:44.384Z,438.00
2023-06-03T03:55:44.429Z,438.00
2023-06-03T03:56:44.397Z,439.00
2023-06-03T03:57:44.436Z,439.00
2023-06-03T03:58:44.448Z,439.00
2023-06-03T03:59:44.466Z,443.00
2023-06-03T04:00:44.464Z,442.00
2023-06-03T04:01:44.522Z,444.00
2023-06-03T04:02:44.534Z,445.00
2023-06-03T04:03:44.554Z,444.00
2023-06-03T04:04:44.568Z,441.00
2023-06-03T04:05:44.540Z,442.00
2023-06-03T04:06:44.536Z,442.00
2023-06-03T04:07:44.552Z,440.00
2023-06-03T04:08:44.577Z,442.00
2023-06-03T04:09:44.557Z,442.00
2023-06-03T04:10:44.596Z,442.00
2023-06-03T04:11:44.579Z,441.00
2023-06-03T04:12:44.583Z,440.00
2023-06-03T04:13:44.612Z,438.00
2023-06-03T04:14:44.615Z,438.00
2023-06-03T04:15:44.698Z,439.00
2023-06-03T04:16:44.663Z,439.00
2023-06-03T04:17:44.706Z,440.00
2023-06-03T04:18:45.096Z,444.00
2023-06-03T04:19:44.721Z,442.00
2023-06-03T04:20:44.731Z,443.00
2023-06-03T04:21:44.696Z,445.00
2023-06-03T04:22:44.758Z,446.00
2023-06-03T04:23:44.755Z,446.00
2023-06-03T04:24:44.777Z,445.00
2023-06-03T04:25:44.753Z,446.00
2023-06-03T04:26:44.795Z,447.00
2023-06-03T04:27:44.811Z,447.00
2023-06-03T04:28:44.850Z,446.00
2023-06-03T04:29:44.825Z,447.00
2023-06-03T04:30:44.858Z,446.00
2023-06-03T04:31:44.912Z,446.00
2023-06-03T04:32:44.949Z,448.00
2023-06-03T04:33:44.934Z,445.00
2023-06-03T04:34:44.953Z,448.00
2023-06-03T04:35:44.931Z,447.00
2023-06-03T04:36:44.977Z,447.00
2023-06-03T04:37:44.962Z,447.00
2023-06-03T04:38:44.963Z,449.00
2023-06-03T04:39:45.023Z,450.00
2023-06-03T04:40:45.015Z,448.00
2023-06-03T04:41:45.023Z,446.00
2023-06-03T04:42:45.045Z,446.00
2023-06-03T04:43:45.043Z,446.00
2023-06-03T04:44:45.062Z,444.00
2023-06-03T04:45:45.038Z,443.00
2023-06-03T04:46:45.100Z,444.00
2023-06-03T04:47:45.124Z,444.00
2023-06-03T04:48:45.088Z,445.00
2023-06-03T04:49:45.103Z,445.00
2023-06-03T04:50:45.084Z,444.00
2023-06-03T04:51:45.111Z,442.00
2023-06-03T04:52:45.103Z,440.00
2023-06-03T04:53:45.142Z,440.00
2023-06-03T04:54:45.139Z,440.00
2023-06-03T04:55:45.150Z,438.00
2023-06-03T04:56:45.152Z,438.00
2023-06-03T04:57:45.152Z,437.00
2023-06-03T04:58:45.158Z,435.00
2023-06-03T04:59:45.252Z,435.00
2023-06-03T05:00:45.199Z,435.00
2023-06-03T05:01:45.255Z,439.00
2023-06-03T05:02:45.235Z,439.00
2023-06-03T05:03:45.245Z,440.00
2023-06-03T05:04:45.206Z,440.00
2023-06-03T05:05:45.186Z,441.00
2023-06-03T05:06:45.222Z,441.00
2023-06-03T05:07:45.206Z,442.00
2023-06-03T05:08:45.251Z,444.00
2023-06-03T05:09:45.254Z,445.00
2023-06-03T05:10:45.243Z,444.00
2023-06-03T05:11:45.245Z,442.00
2023-06-03T05:12:45.258Z,441.00
2023-06-03T05:13:45.266Z,440.00
2023-06-03T05:14:45.873Z,442.00
2023-06-03T05:15:45.299Z,444.00
2023-06-03T05:16:45.370Z,444.00
2023-06-03T05:17:45.372Z,443.00
2023-06-03T05:18:45.350Z,443.00
2023-06-03T05:19:45.337Z,442.00
2023-06-03T05:20:45.316Z,442.00
2023-06-03T05:21:45.352Z,441.00
2023-06-03T05:22:45.354Z,441.00
2023-06-03T05:23:45.382Z,440.00
2023-06-03T05:24:45.351Z,439.00
2023-06-03T05:25:45.366Z,439.00
2023-06-03T05:26:45.346Z,440.00
2023-06-03T05:27:57.761Z,438.00
2023-06-03T05:28:46.322Z,436.00
2023-06-03T05:29:45.291Z,437.00
2023-06-03T05:30:45.237Z,438.00
2023-06-03T05:31:45.297Z,438.00
2023-06-03T05:32:45.192Z,438.00
2023-06-03T05:33:45.140Z,437.00
2023-06-03T05:34:45.119Z,437.00
2023-06-03T05:35:45.067Z,438.00
2023-06-03T05:36:45.042Z,437.00
2023-06-03T05:37:45.019Z,438.00
2023-06-03T05:38:44.971Z,436.00
2023-06-03T05:39:44.939Z,436.00
2023-06-03T05:40:44.888Z,434.00
2023-06-03T05:41:44.887Z,434.00
2023-06-03T05:42:44.895Z,435.00
2023-06-03T05:43:44.884Z,434.00
2023-06-03T05:44:44.860Z,431.00
2023-06-03T05:45:44.971Z,430.00
2023-06-03T05:46:44.912Z,429.00
2023-06-03T05:47:44.997Z,430.00
2023-06-03T05:48:44.921Z,431.00
2023-06-03T05:49:44.895Z,432.00
2023-06-03T05:50:44.901Z,433.00
2023-06-03T05:51:44.913Z,433.00
2023-06-03T05:52:44.937Z,434.00
2023-06-03T05:53:44.996Z,436.00
2023-06-03T05:54:44.948Z,435.00
2023-06-03T05:55:44.918Z,434.00
2023-06-03T05:56:44.961Z,436.00
2023-06-03T05:57:44.965Z,435.00
2023-06-03T05:58:45.033Z,436.00
2023-06-03T05:59:44.972Z,435.00
2023-06-03T06:00:44.952Z,435.00
2023-06-03T06:01:44.960Z,434.00
2023-06-03T06:02:45.012Z,436.00
2023-06-03T06:03:45.132Z,436.00
2023-06-03T06:04:45.103Z,435.00
2023-06-03T06:05:45.012Z,433.00
2023-06-03T06:06:45.006Z,431.00
2023-06-03T06:07:45.027Z,430.00
2023-06-03T06:08:45.039Z,430.00
2023-06-03T06:09:45.037Z,430.00
2023-06-03T06:10:45.073Z,429.00
2023-06-03T06:11:45.060Z,427.00
2023-06-03T06:12:45.061Z,429.00
2023-06-03T06:13:45.072Z,429.00
2023-06-03T06:14:45.073Z,432.00
2023-06-03T06:15:45.200Z,433.00
2023-06-03T06:16:45.116Z,433.00
2023-06-03T06:17:45.129Z,435.00
2023-06-03T06:18:45.108Z,433.00
2023-06-03T06:19:45.101Z,434.00
2023-06-03T06:20:45.071Z,436.00
2023-06-03T06:21:45.059Z,433.00
2023-06-03T06:22:45.094Z,433.00
2023-06-03T06:23:45.163Z,429.00
2023-06-03T06:24:45.030Z,429.00
2023-06-03T06:25:45.073Z,429.00
2023-06-03T06:26:45.045Z,428.00
2023-06-03T06:27:45.084Z,427.00
2023-06-03T06:28:45.075Z,426.00
2023-06-03T06:29:45.053Z,425.00
2023-06-03T06:30:45.086Z,426.00
2023-06-03T06:31:45.147Z,426.00
2023-06-03T06:32:45.125Z,427.00
2023-06-03T06:33:45.071Z,429.00
2023-06-03T06:34:45.100Z,430.00
2023-06-03T06:35:45.127Z,431.00
2023-06-03T06:36:45.105Z,431.00
2023-06-03T06:37:46.981Z,430.00
2023-06-03T06:38:45.102Z,429.00
2023-06-03T06:39:45.063Z,428.00
2023-06-03T06:40:45.026Z,426.00
2023-06-03T06:41:45.006Z,427.00
2023-06-03T06:42:44.962Z,426.00
2023-06-03T06:43:44.904Z,427.00
2023-06-03T06:44:44.950Z,427.00
2023-06-03T06:45:44.875Z,429.00
2023-06-03T06:46:44.838Z,429.00
2023-06-03T06:47:44.819Z,427.00
2023-06-03T06:48:44.772Z,426.00
2023-06-03T06:49:44.723Z,428.00
2023-06-03T06:50:44.791Z,429.00
2023-06-03T06:51:44.658Z,430.00
2023-06-03T06:52:44.643Z,426.00
2023-06-03T06:53:44.574Z,423.00
2023-06-03T06:54:44.582Z,423.00
2023-06-03T06:55:45.121Z,424.00
2023-06-03T06:56:44.516Z,422.00
2023-06-03T06:57:44.481Z,423.00
2023-06-03T06:58:44.467Z,421.00
2023-06-03T06:59:44.452Z,423.00
2023-06-03T07:00:44.386Z,425.00
2023-06-03T07:01:44.421Z,425.00
2023-06-03T07:02:44.352Z,425.00
2023-06-03T07:03:44.330Z,426.00
2023-06-03T07:04:44.263Z,428.00
2023-06-03T07:05:44.223Z,428.00
2023-06-03T07:06:44.200Z,427.00
2023-06-03T07:07:44.175Z,428.00
2023-06-03T07:08:44.184Z,426.00
2023-06-03T07:09:44.131Z,426.00
2023-06-03T07:10:44.091Z,424.00
2023-06-03T07:11:44.049Z,423.00
2023-06-03T07:12:44.054Z,420.00
2023-06-03T07:13:43.989Z,421.00
2023-06-03T07:14:43.980Z,420.00
2023-06-03T07:15:43.957Z,422.00
2023-06-03T07:16:44.038Z,421.00
2023-06-03T07:17:43.956Z,421.00
2023-06-03T07:18:43.877Z,422.00
2023-06-03T07:19:43.838Z,421.00
2023-06-03T07:20:43.821Z,423.00
2023-06-03T07:21:43.777Z,422.00
2023-06-03T07:22:43.777Z,421.00
2023-06-03T07:23:43.850Z,421.00
2023-06-03T07:24:43.794Z,420.00
2023-06-03T07:25:43.836Z,420.00
2023-06-03T07:26:43.841Z,421.00
2023-06-03T07:27:43.876Z,419.00
2023-06-03T07:28:43.908Z,418.00
2023-06-03T07:29:43.925Z,417.00
2023-06-03T07:30:43.919Z,417.00
2023-06-03T07:31:44.007Z,418.00
2023-06-03T07:32:43.990Z,419.00
2023-06-03T07:33:44.009Z,418.00
2023-06-03T07:34:44.045Z,417.00
2023-06-03T07:35:44.054Z,417.00
2023-06-03T07:36:44.075Z,419.00
2023-06-03T07:37:44.082Z,419.00
2023-06-03T07:38:44.087Z,420.00
2023-06-03T07:39:44.129Z,419.00
2023-06-03T07:40:44.174Z,421.00
2023-06-03T07:41:44.169Z,420.00
2023-06-03T07:42:44.210Z,419.00
2023-06-03T07:43:44.207Z,421.00
2023-06-03T07:44:44.307Z,421.00
2023-06-03T07:45:44.210Z,421.00
2023-06-03T07:46:44.465Z,420.00
2023-06-03T07:47:44.260Z,423.00
2023-06-03T07:48:44.214Z,422.00
2023-06-03T07:49:44.256Z,421.00
2023-06-03T07:50:44.285Z,419.00
2023-06-03T07:51:44.258Z,419.00
2023-06-03T07:52:44.279Z,419.00
2023-06-03T07:53:44.359Z,419.00
2023-06-03T07:54:44.331Z,419.00
2023-06-03T07:55:44.289Z,417.00
2023-06-03T07:56:44.357Z,415.00
2023-06-03T07:57:44.374Z,413.00
2023-06-03T07:58:44.468Z,414.00
2023-06-03T07:59:44.372Z,415.00
2023-06-03T08:00:44.407Z,416.00
2023-06-03T08:01:44.446Z,416.00
2023-06-03T08:02:44.501Z,417.00
2023-06-03T08:03:44.370Z,417.00
2023-06-03T08:04:44.399Z,418.00
2023-06-03T08:05:44.381Z,418.00
2023-06-03T08:06:44.449Z,418.00
2023-06-03T08:07:44.438Z,421.00
2023-06-03T08:08:44.435Z,418.00
2023-06-03T08:09:44.545Z,418.00
2023-06-03T08:10:44.466Z,418.00
2023-06-03T08:11:44.488Z,419.00
2023-06-03T08:12:44.508Z,421.00
2023-06-03T08:13:44.517Z,421.00
2023-06-03T08:14:44.491Z,422.00
2023-06-03T08:15:44.482Z,422.00
2023-06-03T08:16:44.459Z,426.00
2023-06-03T08:17:44.432Z,424.00
2023-06-03T08:18:44.416Z,421.00
2023-06-03T08:19:44.411Z,419.00
2023-06-03T08:20:44.402Z,417.00
2023-06-03T08:21:44.385Z,415.00
2023-06-03T08:22:44.396Z,417.00
2023-06-03T08:23:44.402Z,415.00
2023-06-03T08:24:44.333Z,414.00
2023-06-03T08:25:44.304Z,413.00
2023-06-03T08:26:44.287Z,413.00
2023-06-03T08:27:44.263Z,413.00
2023-06-03T08:28:44.227Z,413.00
2023-06-03T08:29:44.231Z,413.00
2023-06-03T08:30:44.235Z,412.00
2023-06-03T08:31:44.270Z,412.00
2023-06-03T08:32:44.219Z,413.00
2023-06-03T08:33:44.197Z,412.00
2023-06-03T08:34:44.170Z,412.00
2023-06-03T08:35:44.162Z,412.00
2023-06-03T08:36:44.142Z,414.00
2023-06-03T08:37:44.144Z,413.00
2023-06-03T08:38:44.136Z,412.00
2023-06-03T08:39:44.102Z,412.00
2023-06-03T08:40:44.094Z,412.00
2023-06-03T08:41:44.080Z,413.00
2023-06-03T08:42:44.027Z,415.00
2023-06-03T08:43:44.039Z,417.00
2023-06-03T08:44:44.034Z,417.00
2023-06-03T08:45:44.032Z,418.00
2023-06-03T08:46:43.990Z,421.00
2023-06-03T08:47:44.014Z,420.00
2023-06-03T08:48:43.957Z,418.00
2023-06-03T08:49:43.943Z,416.00
2023-06-03T08:50:43.915Z,416.00
2023-06-03T08:51:43.913Z,418.00
2023-06-03T08:52:43.888Z,416.00
2023-06-03T08:53:43.861Z,415.00
2023-06-03T08:54:43.831Z,414.00
2023-06-03T08:55:43.789Z,413.00
2023-06-03T08:56:43.773Z,416.00
2023-06-03T08:57:43.759Z,418.00
2023-06-03T08:58:43.763Z,418.00
2023-06-03T08:59:43.729Z,418.00
2023-06-03T09:00:43.701Z,416.00
2023-06-03T09:01:43.750Z,418.00
2023-06-03T09:02:43.665Z,418.00
2023-06-03T09:03:43.689Z,420.00
2023-06-03T09:04:43.646Z,422.00
2023-06-03T09:05:43.590Z,422.00
2023-06-03T09:06:43.591Z,419.00
2023-06-03T09:07:43.545Z,418.00
2023-06-03T09:08:43.515Z,418.00
2023-06-03T09:09:43.631Z,418.00
2023-06-03T09:10:43.542Z,420.00
2023-06-03T09:11:43.442Z,419.00
2023-06-03T09:12:43.447Z,421.00
2023-06-03T09:13:43.418Z,419.00
2023-06-03T09:14:43.408Z,422.00
2023-06-03T09:15:43.452Z,423.00
2023-06-03T09:16:43.367Z,425.00
2023-06-03T09:17:43.388Z,424.00
2023-06-03T09:18:43.300Z,427.00
2023-06-03T09:19:43.295Z,425.00
2023-06-03T09:20:43.285Z,425.00
2023-06-03T09:21:43.287Z,427.00
2023-06-03T09:22:43.240Z,426.00
2023-06-03T09:23:43.252Z,427.00
2023-06-03T09:24:43.185Z,426.00
2023-06-03T09:25:43.161Z,426.00
2023-06-03T09:26:43.141Z,424.00
2023-06-03T09:27:43.094Z,425.00
2023-06-03T09:28:43.089Z,425.00
2023-06-03T09:29:43.057Z,427.00
2023-06-03T09:30:43.028Z,426.00
2023-06-03T09:31:43.037Z,426.00
2023-06-03T09:32:42.985Z,423.00
2023-06-03T09:33:42.982Z,423.00
2023-06-03T09:34:42.918Z,422.00
2023-06-03T09:35:42.895Z,422.00
2023-06-03T09:36:42.868Z,422.00
2023-06-03T09:37:42.840Z,420.00
2023-06-03T09:38:42.795Z,420.00
2023-06-03T09:39:42.809Z,420.00
2023-06-03T09:40:42.759Z,423.00
2023-06-03T09:41:42.729Z,421.00
2023-06-03T09:42:42.714Z,422.00
2023-06-03T09:43:42.676Z,423.00
2023-06-03T09:44:42.646Z,423.00
2023-06-03T09:45:42.603Z,422.00
2023-06-03T09:46:42.600Z,421.00
2023-06-03T09:47:42.575Z,420.00
2023-06-03T09:48:42.545Z,420.00
2023-06-03T09:50:42.449Z,416.00
2023-06-03T09:51:42.410Z,418.00
2023-06-03T09:52:42.376Z,418.00
2023-06-03T09:53:42.308Z,415.00
2023-06-03T09:54:42.248Z,413.00
2023-06-03T09:55:42.158Z,415.00
2023-06-03T09:56:42.197Z,416.00
2023-06-03T09:57:42.085Z,416.00
2023-06-03T09:58:41.984Z,416.00
2023-06-03T09:59:41.958Z,413.00
2023-06-03T10:00:41.901Z,411.00
2023-06-03T10:01:41.854Z,412.00
2023-06-03T10:02:41.984Z,411.00
2023-06-03T10:03:41.741Z,410.00
2023-06-03T10:04:41.694Z,410.00
2023-06-03T10:05:41.637Z,409.00
2023-06-03T10:06:41.566Z,409.00
2023-06-03T10:07:41.545Z,409.00
2023-06-03T10:08:41.475Z,408.00
2023-06-03T10:09:41.433Z,409.00
2023-06-03T10:10:41.389Z,409.00
2023-06-03T10:11:41.319Z,412.00
2023-06-03T10:12:41.300Z,411.00
2023-06-03T10:13:41.276Z,408.00
2023-06-03T10:14:41.172Z,407.00
2023-06-03T10:15:41.166Z,408.00
2023-06-03T10:16:41.168Z,406.00
2023-06-03T10:17:41.054Z,406.00
2023-06-03T10:18:40.984Z,407.00
2023-06-03T10:19:40.984Z,406.00
2023-06-03T10:20:40.918Z,410.00
2023-06-03T10:21:40.897Z,409.00
2023-06-03T10:22:40.880Z,408.00
2023-06-03T10:23:40.830Z,411.00
2023-06-03T10:24:40.739Z,414.00
2023-06-03T10:25:40.677Z,414.00
2023-06-03T10:26:40.640Z,411.00
2023-06-03T10:27:40.621Z,409.00
2023-06-03T10:28:40.606Z,408.00
2023-06-03T10:29:40.504Z,404.00
2023-06-03T10:30:40.483Z,404.00
2023-06-03T10:31:40.426Z,403.00
2023-06-03T10:32:40.380Z,405.00
2023-06-03T10:33:40.497Z,404.00
2023-06-03T10:34:40.343Z,406.00
2023-06-03T10:35:40.245Z,409.00
2023-06-03T10:36:40.215Z,412.00
2023-06-03T10:37:40.144Z,410.00
2023-06-03T10:38:40.123Z,411.00
2023-06-03T10:39:40.060Z,413.00
2023-06-03T10:40:40.039Z,412.00
2023-06-03T10:41:39.960Z,411.00
2023-06-03T10:42:39.945Z,412.00
2023-06-03T10:43:39.880Z,412.00
2023-06-03T10:44:39.829Z,410.00
2023-06-03T10:45:39.782Z,405.00
2023-06-03T10:46:39.792Z,407.00
2023-06-03T10:47:39.734Z,406.00
2023-06-03T10:48:39.657Z,406.00
2023-06-03T10:49:39.607Z,406.00
2023-06-03T10:50:39.561Z,401.00
2023-06-03T10:51:39.498Z,403.00
2023-06-03T10:52:39.472Z,402.00
2023-06-03T10:53:39.439Z,405.00
2023-06-03T10:54:39.401Z,400.00
2023-06-03T10:55:39.398Z,401.00
2023-06-03T10:56:39.280Z,404.00
2023-06-03T10:57:39.269Z,406.00
2023-06-03T10:58:39.192Z,406.00
2023-06-03T10:59:39.159Z,407.00
2023-06-03T11:00:39.081Z,407.00
2023-06-03T11:01:39.078Z,405.00
2023-06-03T11:02:39.024Z,406.00
2023-06-03T11:03:38.963Z,405.00
2023-06-03T11:04:38.868Z,405.00
2023-06-03T11:05:38.854Z,406.00
2023-06-03T11:06:38.773Z,406.00
2023-06-03T11:07:38.721Z,405.00
2023-06-03T11:08:38.672Z,404.00
2023-06-03T11:09:38.633Z,404.00
2023-06-03T11:10:38.600Z,403.00
2023-06-03T11:11:38.490Z,407.00
2023-06-03T11:12:38.442Z,408.00
2023-06-03T11:13:38.418Z,406.00
2023-06-03T11:14:38.373Z,408.00
2023-06-03T11:15:38.284Z,408.00
2023-06-03T11:16:38.251Z,407.00
2023-06-03T11:17:38.231Z,406.00
2023-06-03T11:18:38.123Z,404.00
2023-06-03T11:19:38.065Z,407.00
2023-06-03T11:20:37.985Z,410.00
2023-06-03T11:21:37.945Z,411.00
2023-06-03T11:22:37.888Z,411.00
2023-06-03T11:23:37.855Z,412.00
2023-06-03T11:24:37.814Z,412.00
2023-06-03T11:25:37.701Z,411.00
2023-06-03T11:26:37.660Z,409.00
2023-06-03T11:27:37.600Z,407.00
2023-06-03T11:28:38.049Z,406.00
2023-06-03T11:29:37.541Z,405.00
2023-06-03T11:30:37.443Z,405.00
2023-06-03T11:31:37.455Z,403.00
2023-06-03T11:32:37.426Z,401.00
2023-06-03T11:33:37.347Z,400.00
2023-06-03T11:34:37.266Z,400.00
2023-06-03T11:35:37.219Z,401.00
2023-06-03T11:36:37.223Z,402.00
2023-06-03T11:37:37.206Z,405.00
2023-06-03T11:38:37.194Z,404.00
2023-06-03T11:39:37.161Z,405.00
2023-06-03T11:40:37.127Z,404.00
2023-06-03T11:41:37.092Z,404.00
2023-06-03T11:42:37.033Z,404.00
2023-06-03T11:43:37.002Z,405.00
2023-06-03T11:44:37.008Z,405.00
2023-06-03T11:45:36.946Z,406.00
2023-06-03T11:46:36.937Z,404.00
2023-06-03T11:47:36.913Z,405.00
2023-06-03T11:48:36.912Z,405.00
2023-06-03T11:49:36.896Z,405.00
2023-06-03T11:50:36.882Z,406.00
2023-06-03T11:51:36.828Z,405.00
2023-06-03T11:52:36.841Z,402.00
2023-06-03T11:53:36.848Z,400.00
2023-06-03T11:54:36.809Z,403.00
2023-06-03T11:55:36.766Z,402.00
2023-06-03T11:56:36.715Z,404.00
2023-06-03T11:57:36.711Z,403.00
2023-06-03T11:58:36.701Z,406.00
2023-06-03T11:59:36.690Z,407.00
2023-06-03T12:00:36.651Z,407.00
2023-06-03T12:01:36.701Z,407.00
2023-06-03T12:02:38.184Z,405.00
2023-06-03T12:03:36.767Z,406.00
2023-06-03T12:04:36.696Z,404.00
2023-06-03T12:05:36.626Z,404.00
2023-06-03T12:06:36.569Z,404.00
2023-06-03T12:07:36.581Z,405.00
2023-06-03T12:08:38.159Z,403.00
2023-06-03T12:09:36.548Z,402.00
2023-06-03T12:10:36.490Z,401.00
2023-06-03T12:11:36.477Z,401.00
2023-06-03T12:12:36.455Z,401.00
2023-06-03T12:13:36.434Z,400.00
2023-06-03T12:14:36.462Z,401.00
2023-06-03T12:15:36.440Z,399.00
2023-06-03T12:16:36.406Z,399.00
2023-06-03T12:17:36.397Z,398.00
2023-06-03T12:18:36.388Z,399.00
2023-06-03T12:19:36.348Z,399.00
2023-06-03T12:20:36.290Z,399.00
2023-06-03T12:21:36.323Z,396.00
2023-06-03T12:22:36.304Z,397.00
2023-06-03T12:23:36.292Z,399.00
2023-06-03T12:24:36.221Z,399.00
2023-06-03T12:25:36.236Z,400.00
2023-06-03T12:26:36.228Z,399.00
2023-06-03T12:27:36.187Z,400.00
2023-06-03T12:28:36.165Z,399.00
2023-06-03T12:29:36.168Z,397.00